Boca Chica, Texas
Current Conditions -  °F | °C
As of 3:53 PM on Tuesday 25 Nov 2014 (Local Time) from KBRO Reporting Station
Clear Clear  
Wind Chill: 67°   Ceiling: Unl
Heat Index: 67°   Visibility: 10mi
Dew Point: 41°   Wind: 9mph
Humidity: 39%   Direction: 360°N
Pressure: 30.28"   Gusts: NA
Location:  26.0002°N, 97.5729°W
Report Text: KBRO 252153Z 36008KT 10SM CLR 19/05 A3028 RMK AO2 SLP252 T01940050
Loading
Personal Weather Stations






























Interactive Weather Map New forecast layout! Learn more

10-Day Weather Forecast

Advertisements
Track Severe Weather on mobile